Seabulk Challenge — KNJL — position and weather

sailwx.info

Track history (hours):
 
Tides and Currents Weather Stations Pressure Air Temp Water Temp Dewpoint Dewpoint Depression Visibility Wind Speed Wind Dir Waves Ship Positions

Seabulk Challenge

Owner: Seabulk Tankers, Inc., Fort Lauderdale, FL. More information available from US FCC via Universal Licensing System and Coast Guard Vessel Documentation Center.

Last reported at 2017-Aug-18 13:24 UTC. Time now 2017-Aug-18 14:20 UTC.
Position N 38°54' W 075°07'.

Length 192 m; draft 9 m.

Type: Tanker. MMSI: 303104000.

Date/timePositionNaut miles runAvg speedWind from/ knotsBaromVisibWave heightAir tempDewpointWater temp
2017-Aug-18 13:24N 38°54' W 075°07'0 0.1
2017-Aug-18 13:00N 38°54' W 075°07'0 0.2
2017-Aug-18 12:24N 38°54' W 075°07'0 0.0
2017-Aug-18 11:57N 38°54' W 075°07'0 0.1
2017-Aug-18 11:21N 38°55' W 075°07'0 0.1
2017-Aug-18 10:42N 38°55' W 075°07'0 0.1
2017-Aug-18 10:27N 38°55' W 075°07'0 0.0
2017-Aug-18 10:00N 38°55' W 075°07'0 0.0
2017-Aug-18 09:24N 38°55' W 075°07'0 0.0
2017-Aug-18 09:00N 38°55' W 075°07'0 0.0
2017-Aug-18 08:27N 38°54' W 075°07'0 0.0
2017-Aug-18 07:48N 38°54' W 075°07'0 0.0
2017-Aug-18 07:21N 38°54' W 075°07'0 0.0
2017-Aug-18 06:57N 38°54' W 075°07'0 0.0
2017-Aug-18 06:30N 38°54' W 075°07'0 0.1
2017-Aug-18 06:00N 38°54' W 075°07'0 0.2
2017-Aug-18 05:24N 38°54' W 075°07'0 0.2
2017-Aug-18 05:00N 38°54' W 075°07'0 0.1
2017-Aug-18 04:30N 38°54' W 075°07'0 0.0
2017-Aug-18 04:00N 38°54' W 075°07'0 0.0
2017-Aug-18 03:21N 38°54' W 075°07'0 0.2
2017-Aug-18 03:00N 38°54' W 075°07'0 0.1
2017-Aug-18 02:30N 38°54' W 075°07'0 0.0
2017-Aug-18 02:00N 38°54' W 075°07'0 0.0
2017-Aug-18 01:27N 38°54' W 075°07'0 0.0
2017-Aug-18 01:00N 38°54' W 075°07'0 0.1
2017-Aug-18 00:27N 38°54' W 075°07'0 0.2
2017-Aug-17 23:57N 38°54' W 075°07'0 0.1
2017-Aug-17 23:30N 38°55' W 075°07'0 0.0
2017-Aug-17 23:00N 38°55' W 075°07'0 0.1
2017-Aug-17 22:24N 38°55' W 075°07'0 0.0
2017-Aug-17 22:00N 38°55' W 075°07'0 0.1
2017-Aug-17 21:27N 38°55' W 075°07'0 0.0
2017-Aug-17 21:00N 38°54' W 075°07'0 0.0
2017-Aug-17 20:30N 38°54' W 075°07'0 0.0
2017-Aug-17 19:54N 38°54' W 075°07'0 0.0
2017-Aug-17 18:21N 38°54' W 075°07'0 0.1
2017-Aug-17 17:54N 38°54' W 075°08'0 0.0
2017-Aug-17 17:30N 38°54' W 075°07'1 2.5
2017-Aug-17 17:01N 38°53' W 075°07'611.2
2017-Aug-17 16:31N 38°49' W 075°03'510.9
2017-Aug-17 16:00N 38°45' W 074°58'611.6
2017-Aug-17 15:30N 38°41' W 074°53'5 9.2
2017-Aug-17 15:01N 38°38' W 074°49'5 9.4
2017-Aug-17 14:31N 38°34' W 074°45'5 9.6
2017-Aug-17 14:01N 38°30' W 074°42'5 9.1
2017-Aug-17 13:31N 38°26' W 074°38'5 9.2
2017-Aug-17 13:00N 38°21' W 074°39'2 3.2
2017-Aug-17 12:30N 38°23' W 074°38'510.8
2017-Aug-17 12:00N 38°17' W 074°39'613.1
2017-Aug-17 11:30N 38°11' W 074°39'613.0
2017-Aug-17 11:01N 38°05' W 074°39'612.7
2017-Aug-17 10:30N 37°58' W 074°39'912.9
2017-Aug-17 09:48N 37°49' W 074°39'1013.1
2017-Aug-17 09:02N 37°39' W 074°39'013.7
2017-Aug-17 09:00N 37°39' W 074°39'913.6
2017-Aug-17 08:19N 37°29' W 074°39'413.4
2017-Aug-17 08:00N 37°25' W 074°39'713.5
2017-Aug-17 07:30N 37°18' W 074°39'42814.5
2017-Aug-16 02:01N 31°14' W 079°10'015.6
2017-Aug-16 02:00N 31°14' W 079°10'25216.8
2017-Aug-15 11:00N 27°04' W 079°39'4019.0
2017-Aug-15 08:53N 26°24' W 079°46'719.0
2017-Aug-15 08:30N 26°17' W 079°47'918.9
2017-Aug-15 08:00N 26°07' W 079°48'918.9
2017-Aug-15 07:30N 25°58' W 079°50'918.8
2017-Aug-15 07:01N 25°49' W 079°51'918.8
2017-Aug-15 06:31N 25°39' W 079°52'918.6
2017-Aug-15 06:01N 25°30' W 079°54'918.6
2017-Aug-15 05:30N 25°21' W 079°57'  
Track history (hours):
 
Tides and Currents Weather Stations Pressure Air Temp Water Temp Dewpoint Dewpoint Depression Visibility Wind Speed Wind Dir Waves Ship Positions

Seabulk Challenge

Owner: Seabulk Tankers, Inc., Fort Lauderdale, FL. More information available from US FCC via Universal Licensing System and Coast Guard Vessel Documentation Center.

Last reported at 2017-Aug-18 13:24 UTC. Time now 2017-Aug-18 14:20 UTC.
Position N 38°54' W 075°07'.

Length 192 m; draft 9 m.

Type: Tanker. MMSI: 303104000.

Date/timePositionNaut miles runAvg speedWind from/ knotsBaromVisibWave heightAir tempDewpointWater temp
2017-Aug-18 13:24N 38°54' W 075°07'0 0.1
2017-Aug-18 13:00N 38°54' W 075°07'0 0.2
2017-Aug-18 12:24N 38°54' W 075°07'0 0.0
2017-Aug-18 11:57N 38°54' W 075°07'0 0.1
2017-Aug-18 11:21N 38°55' W 075°07'0 0.1
2017-Aug-18 10:42N 38°55' W 075°07'0 0.1
2017-Aug-18 10:27N 38°55' W 075°07'0 0.0
2017-Aug-18 10:00N 38°55' W 075°07'0 0.0
2017-Aug-18 09:24N 38°55' W 075°07'0 0.0
2017-Aug-18 09:00N 38°55' W 075°07'0 0.0
2017-Aug-18 08:27N 38°54' W 075°07'0 0.0
2017-Aug-18 07:48N 38°54' W 075°07'0 0.0
2017-Aug-18 07:21N 38°54' W 075°07'0 0.0
2017-Aug-18 06:57N 38°54' W 075°07'0 0.0
2017-Aug-18 06:30N 38°54' W 075°07'0 0.1
2017-Aug-18 06:00N 38°54' W 075°07'0 0.2
2017-Aug-18 05:24N 38°54' W 075°07'0 0.2
2017-Aug-18 05:00N 38°54' W 075°07'0 0.1
2017-Aug-18 04:30N 38°54' W 075°07'0 0.0
2017-Aug-18 04:00N 38°54' W 075°07'0 0.0
2017-Aug-18 03:21N 38°54' W 075°07'0 0.2
2017-Aug-18 03:00N 38°54' W 075°07'0 0.1
2017-Aug-18 02:30N 38°54' W 075°07'0 0.0
2017-Aug-18 02:00N 38°54' W 075°07'0 0.0
2017-Aug-18 01:27N 38°54' W 075°07'0 0.0
2017-Aug-18 01:00N 38°54' W 075°07'0 0.1
2017-Aug-18 00:27N 38°54' W 075°07'0 0.2
2017-Aug-17 23:57N 38°54' W 075°07'0 0.1
2017-Aug-17 23:30N 38°55' W 075°07'0 0.0
2017-Aug-17 23:00N 38°55' W 075°07'0 0.1
2017-Aug-17 22:24N 38°55' W 075°07'0 0.0
2017-Aug-17 22:00N 38°55' W 075°07'0 0.1
2017-Aug-17 21:27N 38°55' W 075°07'0 0.0
2017-Aug-17 21:00N 38°54' W 075°07'0 0.0
2017-Aug-17 20:30N 38°54' W 075°07'0 0.0
2017-Aug-17 19:54N 38°54' W 075°07'0 0.0
2017-Aug-17 18:21N 38°54' W 075°07'0 0.1
2017-Aug-17 17:54N 38°54' W 075°08'0 0.0
2017-Aug-17 17:30N 38°54' W 075°07'1 2.5
2017-Aug-17 17:01N 38°53' W 075°07'611.2
2017-Aug-17 16:31N 38°49' W 075°03'510.9
2017-Aug-17 16:00N 38°45' W 074°58'611.6
2017-Aug-17 15:30N 38°41' W 074°53'5 9.2
2017-Aug-17 15:01N 38°38' W 074°49'5 9.4
2017-Aug-17 14:31N 38°34' W 074°45'5 9.6
2017-Aug-17 14:01N 38°30' W 074°42'5 9.1
2017-Aug-17 13:31N 38°26' W 074°38'5 9.2
2017-Aug-17 13:00N 38°21' W 074°39'2 3.2
2017-Aug-17 12:30N 38°23' W 074°38'510.8
2017-Aug-17 12:00N 38°17' W 074°39'613.1
2017-Aug-17 11:30N 38°11' W 074°39'613.0
2017-Aug-17 11:01N 38°05' W 074°39'612.7
2017-Aug-17 10:30N 37°58' W 074°39'912.9
2017-Aug-17 09:48N 37°49' W 074°39'1013.1
2017-Aug-17 09:02N 37°39' W 074°39'013.7
2017-Aug-17 09:00N 37°39' W 074°39'913.6
2017-Aug-17 08:19N 37°29' W 074°39'413.4
2017-Aug-17 08:00N 37°25' W 074°39'713.5
2017-Aug-17 07:30N 37°18' W 074°39'42814.5
2017-Aug-16 02:01N 31°14' W 079°10'015.6
2017-Aug-16 02:00N 31°14' W 079°10'25216.8
2017-Aug-15 11:00N 27°04' W 079°39'4019.0
2017-Aug-15 08:53N 26°24' W 079°46'719.0
2017-Aug-15 08:30N 26°17' W 079°47'918.9
2017-Aug-15 08:00N 26°07' W 079°48'918.9
2017-Aug-15 07:30N 25°58' W 079°50'918.8
2017-Aug-15 07:01N 25°49' W 079°51'918.8
2017-Aug-15 06:31N 25°39' W 079°52'918.6
2017-Aug-15 06:01N 25°30' W 079°54'918.6
2017-Aug-15 05:30N 25°21' W 079°57'  

Dump ship's entire track history